Airfield :











YOU CAN JOIN US ON...

 
LOGIN :

Register | Disclaimer

   EN    FR    IT 

 









Legend :    VFR   Marginal VFR   IFR   Intensive IFR   Very Intensive IFR
Visi :
Ceiling :
>= 8 km
>= 3000ft
5 to 8 km
1000 to 3000 ft
1500m to 5 km
500 to 1000 ft
800 to 1500m
200 to 500 ft
< 800m
< 200 ft
Symbols :   Thunderstorms  Fog  Heavy snow  Heavy precipitations  Wind > 20 kt






- Airport Elevation : 15 ft
- IATA code : PLS


MBPV - Providenciales

CURRENT METAR :
  • 241200Z 07005KT 9999 SCT012 22/16 Q1017

EXPIRED METARs :
  • 241100Z 07005KT 9999 FEW008 SCT015 21/14 Q1016

TAF MBPV
Valid from the 24 at 12:00 until the 25 at 12:00 UTC


241020Z 2412/2512 04007KT 9999 VCSH SCT020
PROB30
TEMPO 2422/2504 09018KT 7000 SHRA SCT018 BKN040



MET'MAP, your aeronautical weather chart ! - Copyright ORBIFLY December 2007 - Disclaimer

ORBIFLY MET'MAP TEAM :

Programming & Development : Alexandra Zaïnal
Concept & original design : Baudouin d'Aumeries
Assistance for programming : Marc-Olivier Méhu
Technical & hardware support : Manuel Goepfert

Contact : metmap@orbifly.com




SOURCES & CREDITS :

   NOAA       Earth
Advisory